createdAt,value
2023-04-17T00:00:23.802Z,100969.22
2023-04-17T00:02:58.122Z,100971.00
2023-04-17T00:05:28.238Z,100975.38
2023-04-17T00:08:00.574Z,100965.78
2023-04-17T00:10:29.294Z,100966.66
2023-04-17T00:12:58.077Z,100962.25
2023-04-17T00:15:26.986Z,100966.66
2023-04-17T00:17:58.913Z,100966.66
2023-04-17T00:20:30.149Z,100961.41
2023-04-17T00:23:02.100Z,100961.41
2023-04-17T00:25:31.236Z,100955.28
2023-04-17T00:27:59.916Z,100960.53
2023-04-17T00:30:28.740Z,100959.66
2023-04-17T00:32:58.780Z,100953.50
2023-04-17T00:35:28.803Z,100951.78
2023-04-17T00:37:57.577Z,100956.97
2023-04-17T00:40:28.132Z,100957.84
2023-04-17T00:43:05.368Z,100955.22
2023-04-17T00:45:36.492Z,100956.97
2023-04-17T00:48:06.914Z,100957.84
2023-04-17T00:50:37.023Z,100955.19
2023-04-17T00:53:06.703Z,100949.03
2023-04-17T00:55:40.814Z,100944.72
2023-04-17T00:58:13.223Z,100940.34
2023-04-17T01:00:43.011Z,100944.72
2023-04-17T01:03:12.419Z,100942.91
2023-04-17T01:05:43.405Z,100943.78
2023-04-17T01:08:13.279Z,100938.50
2023-04-17T01:10:43.383Z,100947.25
2023-04-17T01:13:15.001Z,100945.47
2023-04-17T01:15:47.284Z,100941.94
2023-04-17T01:18:17.246Z,100945.47
2023-04-17T01:20:46.129Z,100948.09
2023-04-17T01:23:16.263Z,100943.66
2023-04-17T01:25:47.499Z,100945.47
2023-04-17T01:28:16.554Z,100948.03
2023-04-17T01:30:46.655Z,100946.28
2023-04-17T01:33:15.784Z,100948.91
2023-04-17T01:35:44.840Z,100943.66
2023-04-17T01:38:14.016Z,100942.78
2023-04-17T01:40:44.255Z,100948.91
2023-04-17T01:43:15.202Z,100941.06
2023-04-17T01:45:44.073Z,100942.78
2023-04-17T01:48:15.558Z,100951.53
2023-04-17T01:50:45.514Z,100944.53
2023-04-17T01:53:14.328Z,100955.00
2023-04-17T01:55:44.293Z,100947.13
2023-04-17T01:58:14.555Z,100954.94
2023-04-17T02:00:45.431Z,100958.41
2023-04-17T02:03:15.671Z,100952.28
2023-04-17T02:05:47.198Z,100947.84
2023-04-17T02:08:16.577Z,100951.31
2023-04-17T02:10:47.061Z,100955.69
2023-04-17T02:13:17.393Z,100951.31
2023-04-17T02:15:46.062Z,100946.06
2023-04-17T02:18:15.133Z,100949.56
2023-04-17T02:20:48.018Z,100953.94
2023-04-17T02:23:18.049Z,100946.88
2023-04-17T02:25:46.771Z,100950.34
2023-04-17T02:28:18.753Z,100954.75
2023-04-17T02:30:47.752Z,100954.69
2023-04-17T02:33:17.598Z,100952.09
2023-04-17T02:35:46.658Z,100952.91
2023-04-17T02:38:17.740Z,100955.47
2023-04-17T02:40:46.738Z,100949.31
2023-04-17T02:43:15.828Z,100956.28
2023-04-17T02:45:47.020Z,100951.91
2023-04-17T02:48:16.495Z,100956.28
2023-04-17T02:50:48.168Z,100961.47
2023-04-17T02:53:20.332Z,100958.78
2023-04-17T02:55:55.978Z,100959.69
2023-04-17T02:58:27.330Z,100967.50
2023-04-17T03:01:02.965Z,100963.91
2023-04-17T03:03:39.248Z,100962.09
2023-04-17T03:06:14.010Z,100958.59
2023-04-17T03:08:46.305Z,100969.03
2023-04-17T03:11:18.335Z,100968.13
2023-04-17T03:13:52.363Z,100957.59
2023-04-17T03:16:24.769Z,100963.66
2023-04-17T03:18:55.344Z,100969.72
2023-04-17T03:21:28.171Z,100959.19
2023-04-17T03:24:04.621Z,100960.91
2023-04-17T03:26:37.242Z,100968.78
2023-04-17T03:29:12.412Z,100969.63
2023-04-17T03:31:52.113Z,100977.47
2023-04-17T03:34:22.568Z,100971.31
2023-04-17T03:36:51.882Z,100966.91
2023-04-17T03:39:24.807Z,100968.66
2023-04-17T03:41:57.612Z,100963.34
2023-04-17T03:44:29.928Z,100962.38
2023-04-17T03:47:04.193Z,100973.63
2023-04-17T03:49:33.306Z,100970.09
2023-04-17T03:52:05.515Z,100978.69
2023-04-17T03:54:37.338Z,100977.66
2023-04-17T03:57:09.541Z,100978.50
2023-04-17T03:59:42.782Z,100972.22
2023-04-17T04:02:14.294Z,100978.22
2023-04-17T04:04:45.224Z,100978.19
2023-04-17T04:07:20.659Z,100977.22
2023-04-17T04:09:52.312Z,100982.38
2023-04-17T04:12:23.052Z,100979.66
2023-04-17T04:14:51.815Z,100977.88
2023-04-17T04:17:22.504Z,100983.88
2023-04-17T04:19:51.294Z,100981.09
2023-04-17T04:22:21.301Z,100983.69
2023-04-17T04:24:56.605Z,100983.56
2023-04-17T04:27:34.753Z,100983.44
2023-04-17T04:30:11.073Z,100986.88
2023-04-17T04:32:49.364Z,100991.22
2023-04-17T04:35:19.440Z,100992.88
2023-04-17T04:37:50.409Z,100991.09
2023-04-17T04:40:26.789Z,100987.50
2023-04-17T04:42:56.145Z,100989.16
2023-04-17T04:45:31.193Z,100995.22
2023-04-17T04:48:03.444Z,100999.50
2023-04-17T04:50:32.516Z,101008.19
2023-04-17T04:53:04.395Z,101003.75
2023-04-17T04:55:44.574Z,101002.00
2023-04-17T04:58:14.517Z,101008.94
2023-04-17T05:00:44.820Z,101008.94
2023-04-17T05:03:22.632Z,101008.88
2023-04-17T05:05:55.944Z,101008.88
2023-04-17T05:08:35.026Z,101017.59
2023-04-17T05:11:11.624Z,101011.47
2023-04-17T05:13:40.868Z,101021.06
2023-04-17T05:16:16.504Z,101024.56
2023-04-17T05:18:48.470Z,101021.94
2023-04-17T05:21:21.393Z,101020.22
2023-04-17T05:23:52.896Z,101027.25
2023-04-17T05:26:22.437Z,101025.53
2023-04-17T05:28:51.879Z,101028.16
2023-04-17T05:31:25.434Z,101028.16
2023-04-17T05:33:56.087Z,101027.25
2023-04-17T05:36:25.312Z,101023.81
2023-04-17T05:38:57.725Z,101017.69
2023-04-17T05:41:28.117Z,101026.50
2023-04-17T05:43:57.297Z,101030.88
2023-04-17T05:46:26.421Z,101032.69
2023-04-17T05:48:57.757Z,101034.47
2023-04-17T05:51:26.592Z,101029.31
2023-04-17T05:53:55.397Z,101028.47
2023-04-17T05:56:24.210Z,101029.38
2023-04-17T05:58:52.927Z,101030.34
2023-04-17T06:01:22.933Z,101033.84
2023-04-17T06:03:56.400Z,101022.59
2023-04-17T06:06:28.607Z,101033.16
2023-04-17T06:08:58.352Z,101044.59
2023-04-17T06:11:27.234Z,101044.66
2023-04-17T06:13:55.760Z,101042.03
2023-04-17T06:16:24.358Z,101035.16
2023-04-17T06:18:53.190Z,101044.81
2023-04-17T06:21:23.799Z,101042.31
2023-04-17T06:23:53.328Z,101042.44
2023-04-17T06:26:24.739Z,101040.81
2023-04-17T06:28:53.292Z,101040.94
2023-04-17T06:31:22.185Z,101038.44
2023-04-17T06:33:51.416Z,101043.81
2023-04-17T06:36:24.824Z,101050.06
2023-04-17T06:38:57.674Z,101049.31
2023-04-17T06:41:26.568Z,101052.88
2023-04-17T06:43:55.717Z,101065.22
2023-04-17T06:46:24.467Z,101059.13
2023-04-17T06:48:57.942Z,101062.78
2023-04-17T06:51:29.283Z,101062.91
2023-04-17T06:53:58.009Z,101066.50
2023-04-17T06:56:26.718Z,101071.72
2023-04-17T06:58:57.921Z,101078.75
2023-04-17T07:01:27.964Z,101075.31
2023-04-17T07:03:56.470Z,101070.06
2023-04-17T07:06:29.122Z,101070.97
2023-04-17T07:08:57.620Z,101070.13
2023-04-17T07:11:26.378Z,101071.97
2023-04-17T07:13:56.153Z,101072.09
2023-04-17T07:16:24.751Z,101080.09
2023-04-17T07:18:53.803Z,101086.28
2023-04-17T07:21:27.756Z,101095.84
2023-04-17T07:23:56.176Z,101091.50
2023-04-17T07:26:26.519Z,101093.44
2023-04-17T07:28:55.071Z,101103.22
2023-04-17T07:31:25.106Z,101105.06
2023-04-17T07:33:53.597Z,101108.66
2023-04-17T07:36:22.211Z,101106.09
2023-04-17T07:38:52.295Z,101102.66
2023-04-17T07:41:21.150Z,101106.97
2023-04-17T07:43:49.803Z,101111.31
2023-04-17T07:46:19.362Z,101105.13
2023-04-17T07:48:47.973Z,101107.75
2023-04-17T07:51:16.820Z,101110.34
2023-04-17T07:53:45.387Z,101107.75
2023-04-17T07:56:15.287Z,101123.59
2023-04-17T07:58:45.012Z,101111.44
2023-04-17T08:01:13.737Z,101116.06
2023-04-17T08:03:45.142Z,101118.88
2023-04-17T08:06:14.168Z,101117.34
2023-04-17T08:08:47.397Z,101120.88
2023-04-17T08:11:17.261Z,101128.75
2023-04-17T08:13:45.895Z,101122.69
2023-04-17T08:16:14.477Z,101129.78
2023-04-17T08:18:43.036Z,101128.19
2023-04-17T08:21:11.592Z,101129.13
2023-04-17T08:23:41.012Z,101131.88
2023-04-17T08:26:09.648Z,101123.31
2023-04-17T08:28:39.642Z,101122.53
2023-04-17T08:31:10.395Z,101126.16
2023-04-17T08:33:38.915Z,101137.72
2023-04-17T08:36:09.591Z,101118.69
2023-04-17T08:38:38.247Z,101138.09
2023-04-17T08:41:12.848Z,101134.78
2023-04-17T08:43:42.466Z,101137.72
2023-04-17T08:46:13.481Z,101142.28
2023-04-17T08:48:42.786Z,101133.75
2023-04-17T08:51:11.295Z,101130.53
2023-04-17T08:53:39.971Z,101143.88
2023-04-17T08:56:09.348Z,101147.44
2023-04-17T08:58:38.008Z,101135.28
2023-04-17T09:01:12.013Z,101138.91
2023-04-17T09:03:43.054Z,101143.34
2023-04-17T09:06:12.953Z,101140.84
2023-04-17T09:08:56.656Z,101140.16
2023-04-17T09:11:25.710Z,101142.97
2023-04-17T09:13:54.590Z,101152.78
2023-04-17T09:16:25.672Z,101146.94
2023-04-17T09:19:06.590Z,101144.56
2023-04-17T09:21:35.036Z,101152.53
2023-04-17T09:24:05.381Z,101156.16
2023-04-17T09:26:34.042Z,101150.22
2023-04-17T09:29:05.036Z,101156.59
2023-04-17T09:31:36.191Z,101154.16
2023-04-17T09:34:07.481Z,101159.59
2023-04-17T09:36:38.240Z,101154.59
2023-04-17T09:39:17.920Z,101150.44
2023-04-17T09:41:46.344Z,101152.41
2023-04-17T09:44:27.001Z,101152.69
2023-04-17T09:46:57.588Z,101155.66
2023-04-17T09:49:34.843Z,101157.63
2023-04-17T09:52:04.172Z,101160.44
2023-04-17T09:54:37.693Z,101165.00
2023-04-17T09:57:08.817Z,101160.78
2023-04-17T09:59:40.610Z,101159.31
2023-04-17T10:02:11.567Z,101161.38
2023-04-17T10:04:42.273Z,101152.06
2023-04-17T10:07:14.547Z,101142.66
2023-04-17T10:09:45.542Z,101149.06
2023-04-17T10:12:19.230Z,101153.66
2023-04-17T10:14:50.941Z,101142.31
2023-04-17T10:17:28.889Z,101151.97
2023-04-17T10:19:57.564Z,101141.50
2023-04-17T10:22:34.071Z,101144.09
2023-04-17T10:25:18.946Z,101145.91
2023-04-17T10:27:49.020Z,101140.66
2023-04-17T10:30:17.807Z,101123.25
2023-04-17T10:32:48.727Z,101126.78
2023-04-17T10:35:37.611Z,101122.47
2023-04-17T10:38:07.966Z,101124.22
2023-04-17T10:40:38.028Z,101119.88
2023-04-17T10:43:13.487Z,101119.09
2023-04-17T10:45:57.325Z,101124.34
2023-04-17T10:48:33.394Z,101112.88
2023-04-17T10:51:02.990Z,101115.69
2023-04-17T10:53:45.243Z,101109.88
2023-04-17T10:56:21.194Z,101109.16
2023-04-17T10:58:59.255Z,101116.38
2023-04-17T11:01:31.743Z,101106.91
2023-04-17T11:04:02.777Z,101107.00
2023-04-17T11:06:33.737Z,101104.53
2023-04-17T11:09:02.399Z,101096.91
2023-04-17T11:14:12.803Z,101086.88
2023-04-17T11:16:44.203Z,101100.22
2023-04-17T11:19:19.548Z,101101.38
2023-04-17T11:21:50.382Z,101108.69
2023-04-17T11:24:24.908Z,101092.22
2023-04-17T11:26:54.764Z,101098.53
2023-04-17T11:29:25.246Z,101108.56
2023-04-17T11:31:55.446Z,101115.00
2023-04-17T11:34:27.143Z,101106.56
2023-04-17T11:36:57.479Z,101107.56
2023-04-17T11:39:27.924Z,101105.16
2023-04-17T11:41:57.240Z,101115.94
2023-04-17T11:44:27.259Z,101114.38
2023-04-17T11:46:59.531Z,101112.63
2023-04-17T11:49:31.348Z,101111.13
2023-04-17T11:52:02.129Z,101100.88
2023-04-17T11:54:32.085Z,101107.16
2023-04-17T11:57:02.217Z,101106.44
2023-04-17T11:59:32.680Z,101103.06
2023-04-17T12:02:03.768Z,101101.41
2023-04-17T12:04:35.870Z,101108.50
2023-04-17T12:07:05.851Z,101102.38
2023-04-17T12:09:35.653Z,101098.91
2023-04-17T12:12:06.974Z,101099.84
2023-04-17T12:14:35.865Z,101106.03
2023-04-17T12:17:04.561Z,101107.72
2023-04-17T12:19:34.597Z,101106.88
2023-04-17T12:22:03.408Z,101110.34
2023-04-17T12:24:32.146Z,101110.34
2023-04-17T12:27:01.864Z,101111.38
2023-04-17T12:29:43.244Z,101102.75
2023-04-17T12:32:13.338Z,101098.63
2023-04-17T12:34:43.116Z,101091.94
2023-04-17T12:37:11.593Z,101093.09
2023-04-17T12:39:40.179Z,101099.53
2023-04-17T12:42:08.811Z,101090.00
2023-04-17T12:44:37.617Z,101090.94
2023-04-17T12:47:06.393Z,101096.31
2023-04-17T12:49:34.815Z,101091.13
2023-04-17T12:52:04.818Z,101093.00
2023-04-17T12:54:36.424Z,101096.63
2023-04-17T12:57:04.928Z,101092.25
2023-04-17T12:59:33.866Z,101093.13
2023-04-17T13:02:02.948Z,101093.09
2023-04-17T13:04:31.792Z,101094.69
2023-04-17T13:07:00.739Z,101097.16
2023-04-17T13:09:30.674Z,101088.13
2023-04-17T13:11:59.194Z,101083.66
2023-04-17T13:14:30.849Z,101081.03
2023-04-17T13:16:59.531Z,101089.97
2023-04-17T13:19:28.056Z,101084.72
2023-04-17T13:21:56.546Z,101089.13
2023-04-17T13:24:25.279Z,101083.84
2023-04-17T13:26:58.317Z,101090.91
2023-04-17T13:29:26.736Z,101083.69
2023-04-17T13:31:55.201Z,101078.31
2023-04-17T13:34:23.700Z,101084.38
2023-04-17T13:36:54.961Z,101079.13
2023-04-17T13:39:25.413Z,101070.44
2023-04-17T13:41:58.324Z,101077.59
2023-04-17T13:44:28.862Z,101059.25
2023-04-17T13:46:57.684Z,101071.63
2023-04-17T13:49:27.557Z,101071.72
2023-04-17T13:51:56.293Z,101063.06
2023-04-17T13:54:24.831Z,101069.22
2023-04-17T13:56:54.638Z,101068.31
2023-04-17T13:59:24.513Z,101071.25
2023-04-17T14:01:53.450Z,101058.31
2023-04-17T14:04:22.337Z,101048.94
2023-04-17T14:06:51.526Z,101056.22
2023-04-17T14:09:19.927Z,101051.88
2023-04-17T14:11:48.461Z,101058.94
2023-04-17T14:14:16.931Z,101050.94
2023-04-17T14:16:50.892Z,101058.94
2023-04-17T14:19:20.124Z,101057.06
2023-04-17T14:21:49.390Z,101047.28
2023-04-17T14:24:18.757Z,101056.91
2023-04-17T14:26:47.474Z,101058.59
2023-04-17T14:29:16.127Z,101058.47
2023-04-17T14:31:46.220Z,101056.56
2023-04-17T14:34:14.927Z,101046.69
2023-04-17T14:36:43.722Z,101057.25
2023-04-17T14:39:12.944Z,101047.63
2023-04-17T14:41:41.655Z,101042.47
2023-04-17T14:44:11.534Z,101046.13
2023-04-17T14:46:40.298Z,101038.41
2023-04-17T14:49:10.163Z,101042.13
2023-04-17T14:51:39.966Z,101037.84
2023-04-17T14:54:08.858Z,101038.75
2023-04-17T14:56:37.447Z,101040.50
2023-04-17T14:59:07.291Z,101043.13
2023-04-17T15:01:35.893Z,101051.06
2023-04-17T15:04:04.667Z,101036.09
2023-04-17T15:06:35.455Z,101034.28
2023-04-17T15:09:04.204Z,101035.97
2023-04-17T15:11:32.684Z,101035.97
2023-04-17T15:14:01.225Z,101029.81
2023-04-17T15:16:30.042Z,101027.25
2023-04-17T15:18:58.691Z,101027.44
2023-04-17T15:21:27.316Z,101030.19
2023-04-17T15:23:57.236Z,101038.22
2023-04-17T15:26:27.274Z,101029.41
2023-04-17T15:28:55.746Z,101023.16
2023-04-17T15:31:24.393Z,101028.47
2023-04-17T15:33:53.146Z,101024.09
2023-04-17T15:36:21.495Z,101014.44
2023-04-17T15:38:49.969Z,101021.50
2023-04-17T15:41:19.848Z,101019.72
2023-04-17T15:43:48.312Z,101025.81
2023-04-17T15:46:17.034Z,101021.28
2023-04-17T15:48:52.012Z,101021.97
2023-04-17T15:51:29.742Z,101020.94
2023-04-17T15:53:58.552Z,101026.16
2023-04-17T15:56:28.404Z,101011.09
2023-04-17T15:58:57.260Z,101016.38
2023-04-17T16:01:26.533Z,101018.13
2023-04-17T16:03:55.169Z,101007.63
2023-04-17T16:06:23.780Z,101008.69
2023-04-17T16:08:52.422Z,101018.56
2023-04-17T16:11:21.024Z,101015.06
2023-04-17T16:13:51.145Z,101005.44
2023-04-17T16:16:19.781Z,101008.16
2023-04-17T16:18:48.474Z,101006.50
2023-04-17T16:21:17.300Z,101004.78
2023-04-17T16:23:48.731Z,101002.19
2023-04-17T16:26:17.315Z,101004.91
2023-04-17T16:28:46.428Z,101004.03
2023-04-17T16:31:17.358Z,100996.84
2023-04-17T16:33:46.046Z,101008.19
2023-04-17T16:36:14.659Z,101001.84
2023-04-17T16:38:43.360Z,100998.09
2023-04-17T16:41:12.234Z,100991.00
2023-04-17T16:43:41.919Z,101006.06
2023-04-17T16:46:18.728Z,100998.13
2023-04-17T16:48:53.190Z,101002.66
2023-04-17T16:51:23.709Z,100994.75
2023-04-17T16:53:52.227Z,100996.56
2023-04-17T16:56:21.110Z,100999.22
2023-04-17T16:58:49.565Z,100998.34
2023-04-17T17:01:18.371Z,100999.19
2023-04-17T17:03:47.087Z,101005.31
2023-04-17T17:06:18.174Z,100999.81
2023-04-17T17:08:46.945Z,101000.59
2023-04-17T17:11:16.100Z,101005.75
2023-04-17T17:13:47.411Z,101003.78
2023-04-17T17:16:16.930Z,100997.41
2023-04-17T17:18:46.077Z,101004.28
2023-04-17T17:21:16.125Z,100994.38
2023-04-17T17:23:44.944Z,100984.53
2023-04-17T17:26:13.417Z,100998.44
2023-04-17T17:28:41.926Z,100997.44
2023-04-17T17:31:10.681Z,100998.09
2023-04-17T17:33:39.277Z,100999.72
2023-04-17T17:36:08.985Z,101004.84
2023-04-17T17:38:39.029Z,101009.13
2023-04-17T17:41:07.572Z,101005.50
2023-04-17T17:43:36.202Z,101006.16
2023-04-17T17:46:04.713Z,101001.53
2023-04-17T17:48:35.597Z,101011.09
2023-04-17T17:51:04.217Z,101013.50
2023-04-17T17:53:32.783Z,101015.97
2023-04-17T17:56:02.842Z,101012.31
2023-04-17T17:58:31.346Z,101007.75
2023-04-17T18:00:59.974Z,101013.78
2023-04-17T18:03:28.631Z,101019.78
2023-04-17T18:05:57.429Z,101015.19
2023-04-17T18:08:26.037Z,101012.47
2023-04-17T18:10:54.588Z,101014.94
2023-04-17T18:13:24.638Z,101020.94
2023-04-17T18:15:53.429Z,101013.75
2023-04-17T18:18:21.944Z,101026.84
2023-04-17T18:20:50.831Z,101022.25
2023-04-17T18:23:19.494Z,101025.59
2023-04-17T18:25:57.750Z,101024.59
2023-04-17T18:28:28.269Z,101030.59
2023-04-17T18:30:57.136Z,101028.72
2023-04-17T18:33:25.748Z,101035.59
2023-04-17T18:35:54.338Z,101023.06
2023-04-17T18:38:22.899Z,101028.19
2023-04-17T18:40:55.516Z,101028.94
2023-04-17T18:43:24.234Z,101025.25
2023-04-17T18:45:54.591Z,101033.91
2023-04-17T18:48:24.255Z,101026.66
2023-04-17T18:50:52.865Z,101033.44
2023-04-17T18:53:21.539Z,101037.69
2023-04-17T18:55:50.214Z,101039.16
2023-04-17T18:58:18.980Z,101030.19
2023-04-17T19:00:47.812Z,101037.00
2023-04-17T19:03:18.024Z,101041.13
2023-04-17T19:05:46.804Z,101039.13
2023-04-17T19:08:15.879Z,101035.38
2023-04-17T19:10:44.419Z,101034.22
2023-04-17T19:13:12.987Z,101042.78
2023-04-17T19:15:41.690Z,101041.66
2023-04-17T19:18:10.832Z,101043.13
2023-04-17T19:20:42.425Z,101035.84
2023-04-17T19:23:11.219Z,101042.63
2023-04-17T19:25:41.679Z,101043.28
2023-04-17T19:28:11.431Z,101042.97
2023-04-17T19:30:40.229Z,101052.44
2023-04-17T19:33:08.907Z,101051.31
2023-04-17T19:35:37.622Z,101046.66
2023-04-17T19:38:07.636Z,101043.75
2023-04-17T19:40:36.131Z,101047.00
2023-04-17T19:43:04.710Z,101050.22
2023-04-17T19:45:34.816Z,101049.06
2023-04-17T19:48:03.637Z,101047.94
2023-04-17T19:50:32.388Z,101046.88
2023-04-17T19:53:01.072Z,101047.63
2023-04-17T19:55:31.199Z,101041.31
2023-04-17T19:57:59.937Z,101042.91
2023-04-17T20:00:29.053Z,101046.94
2023-04-17T20:02:57.716Z,101045.72
2023-04-17T20:05:27.450Z,101047.19
2023-04-17T20:07:56.061Z,101039.81
2023-04-17T20:10:24.876Z,101044.03
2023-04-17T20:12:54.813Z,101041.16
2023-04-17T20:15:23.399Z,101041.84
2023-04-17T20:17:52.145Z,101045.06
2023-04-17T20:20:20.825Z,101043.88
2023-04-17T20:22:49.875Z,101045.31
2023-04-17T20:25:18.593Z,101049.44
2023-04-17T20:27:47.776Z,101040.50
2023-04-17T20:30:18.007Z,101050.00
2023-04-17T20:32:48.101Z,101042.84
2023-04-17T20:35:17.728Z,101039.91
2023-04-17T20:37:46.486Z,101032.75
2023-04-17T20:40:15.373Z,101035.28
2023-04-17T20:42:45.209Z,101033.41
2023-04-17T20:45:13.983Z,101037.66
2023-04-17T20:50:16.996Z,101033.91
2023-04-17T20:52:45.691Z,101031.03
2023-04-17T20:55:14.313Z,101028.09
2023-04-17T20:57:42.872Z,101027.88
2023-04-17T21:00:12.391Z,101026.81
2023-04-17T21:02:41.336Z,101027.38
2023-04-17T21:05:11.492Z,101022.78
2023-04-17T21:07:40.041Z,101032.25
2023-04-17T21:10:09.544Z,101023.41
2023-04-17T21:12:38.238Z,101029.44
2023-04-17T21:15:07.716Z,101025.09
2023-04-17T21:17:36.233Z,101032.00
2023-04-17T21:20:05.532Z,101027.66
2023-04-17T21:22:36.831Z,101032.00
2023-04-17T21:25:06.240Z,101039.75
2023-04-17T21:27:34.750Z,101030.06
2023-04-17T21:30:03.962Z,101029.13
2023-04-17T21:32:32.528Z,101032.66
2023-04-17T21:35:01.122Z,101026.50
2023-04-17T21:37:29.596Z,101036.97
2023-04-17T21:39:59.625Z,101036.97
2023-04-17T21:42:28.220Z,101033.41
2023-04-17T21:44:56.687Z,101040.34
2023-04-17T21:47:26.829Z,101039.38
2023-04-17T21:49:55.477Z,101041.97
2023-04-17T21:52:24.000Z,101041.84
2023-04-17T21:54:52.498Z,101046.16
2023-04-17T21:57:22.425Z,101047.88
2023-04-17T21:59:51.033Z,101043.50
2023-04-17T22:02:19.695Z,101046.94
2023-04-17T22:04:48.392Z,101041.69
2023-04-17T22:07:18.456Z,101045.16
2023-04-17T22:09:46.965Z,101046.81
2023-04-17T22:12:17.728Z,101046.81
2023-04-17T22:14:48.033Z,101053.69
2023-04-17T22:17:17.196Z,101058.03
2023-04-17T22:19:45.739Z,101046.56
2023-04-17T22:22:14.235Z,101045.69
2023-04-17T22:24:43.267Z,101051.78
2023-04-17T22:27:14.116Z,101054.28
2023-04-17T22:29:42.636Z,101055.09
2023-04-17T22:32:12.484Z,101054.22
2023-04-17T22:34:42.424Z,101053.25
2023-04-17T22:37:11.187Z,101047.94
2023-04-17T22:39:39.680Z,101050.44
2023-04-17T22:42:08.250Z,101053.88
2023-04-17T22:44:36.821Z,101052.91
2023-04-17T22:47:05.511Z,101051.06
2023-04-17T22:49:37.994Z,101044.88
2023-04-17T22:52:06.846Z,101052.69
2023-04-17T22:54:35.756Z,101052.50
2023-04-17T22:57:04.345Z,101054.13
2023-04-17T22:59:32.921Z,101046.22
2023-04-17T23:02:01.545Z,101052.22
2023-04-17T23:04:30.373Z,101053.88
2023-04-17T23:07:00.598Z,101048.56
2023-04-17T23:09:29.224Z,101053.75
2023-04-17T23:11:57.759Z,101061.47
2023-04-17T23:14:28.493Z,101048.22
2023-04-17T23:16:57.021Z,101047.34
2023-04-17T23:19:25.695Z,101048.09
2023-04-17T23:21:54.265Z,101054.16
2023-04-17T23:24:24.199Z,101048.88
2023-04-17T23:26:54.877Z,101055.69
2023-04-17T23:29:23.421Z,101050.38
2023-04-17T23:31:52.028Z,101052.03
2023-04-17T23:34:20.735Z,101053.66
2023-04-17T23:36:49.323Z,101052.66
2023-04-17T23:39:17.874Z,101050.88
2023-04-17T23:41:47.904Z,101054.25
2023-04-17T23:44:16.396Z,101047.97
2023-04-17T23:46:44.889Z,101048.66
2023-04-17T23:49:13.482Z,101051.97
2023-04-17T23:51:42.064Z,101045.69
2023-04-17T23:54:11.415Z,101053.47
2023-04-17T23:56:43.465Z,101043.78
2023-04-17T23:59:14.890Z,101043.63
